createdAt,value
2023-01-11T00:06:12.560Z,7.10
2023-01-11T00:11:16.871Z,7.20
2023-01-11T00:13:46.041Z,7.20
2023-01-11T00:21:13.481Z,7.20
2023-01-11T00:23:41.585Z,7.60
2023-01-11T00:26:13.787Z,7.30
2023-01-11T00:28:41.873Z,7.40
2023-01-11T00:31:10.569Z,7.40
2023-01-11T00:33:38.702Z,7.40
2023-01-11T00:41:34.351Z,7.30
2023-01-11T00:47:08.282Z,7.60
2023-01-11T00:52:09.322Z,7.20
2023-01-11T00:54:39.383Z,7.20
2023-01-11T00:57:08.553Z,6.90
2023-01-11T00:59:39.424Z,7.30
2023-01-11T01:02:08.934Z,7.40
2023-01-11T01:04:37.054Z,7.60
2023-01-11T01:07:06.333Z,7.70
2023-01-11T01:14:33.263Z,7.90
2023-01-11T01:17:09.508Z,7.50
2023-01-11T01:19:39.976Z,7.50
2023-01-11T01:22:08.118Z,7.40
2023-01-11T01:24:36.672Z,7.20
2023-01-11T01:29:33.461Z,7.00
2023-01-11T01:36:58.550Z,7.30
2023-01-11T01:39:26.735Z,7.20
2023-01-11T01:41:54.796Z,8.00
2023-01-11T01:45:08.122Z,7.90
2023-01-11T01:47:52.036Z,7.60
2023-01-11T01:50:32.012Z,7.60
2023-01-11T01:53:10.899Z,7.60
2023-01-11T01:55:46.629Z,7.60
2023-01-11T01:58:18.084Z,7.60
2023-01-11T02:00:47.947Z,7.70
2023-01-11T02:03:26.765Z,7.50
2023-01-11T02:05:55.610Z,7.60
2023-01-11T02:08:39.357Z,7.90
2023-01-11T02:11:29.205Z,8.00
2023-01-11T02:14:04.707Z,7.70
2023-01-11T02:16:33.202Z,7.60
2023-01-11T02:22:14.072Z,7.30
2023-01-11T02:25:09.403Z,7.80
2023-01-11T02:28:18.750Z,7.60
2023-01-11T02:31:06.262Z,7.90
2023-01-11T02:34:02.089Z,7.50
2023-01-11T02:36:48.453Z,7.20
2023-01-11T02:40:08.174Z,8.00
2023-01-11T02:43:12.863Z,7.50
2023-01-11T02:46:05.712Z,7.50
2023-01-11T02:49:05.513Z,7.20
2023-01-11T02:51:42.880Z,7.60
2023-01-11T02:54:13.221Z,7.70
2023-01-11T02:56:48.826Z,7.30
2023-01-11T02:59:25.455Z,7.20
2023-01-11T03:01:55.797Z,7.60
2023-01-11T03:04:36.798Z,7.30
2023-01-11T03:07:55.107Z,7.40
2023-01-11T03:10:29.176Z,7.40
2023-01-11T03:13:26.856Z,7.40
2023-01-11T03:18:54.245Z,7.00
2023-01-11T03:21:41.254Z,7.90
2023-01-11T03:27:18.384Z,7.30
2023-01-11T03:30:18.877Z,7.40
2023-01-11T03:32:56.279Z,7.90
2023-01-11T03:35:41.308Z,7.50
2023-01-11T03:38:21.840Z,7.30
2023-01-11T03:41:06.716Z,7.60
2023-01-11T03:43:38.113Z,7.60
2023-01-11T03:46:15.576Z,7.50
2023-01-11T03:48:56.797Z,7.70
2023-01-11T03:51:31.967Z,7.80
2023-01-11T03:54:05.156Z,7.30
2023-01-11T03:57:10.786Z,7.60
2023-01-11T03:59:41.186Z,7.60
2023-01-11T04:02:23.517Z,7.90
2023-01-11T04:04:51.848Z,7.90
2023-01-11T04:07:20.065Z,7.60
2023-01-11T04:09:48.230Z,7.50
2023-01-11T04:12:16.367Z,8.00
2023-01-11T04:22:10.116Z,8.20
2023-01-11T04:24:38.179Z,7.90
2023-01-11T04:27:06.417Z,7.30
2023-01-11T04:29:34.540Z,7.70
2023-01-11T04:37:00.304Z,7.30
2023-01-11T04:39:28.520Z,7.90
2023-01-11T04:42:13.683Z,7.40
2023-01-11T04:44:41.858Z,7.40
2023-01-11T04:47:09.976Z,7.20
2023-01-11T04:52:06.936Z,7.50
2023-01-11T04:54:35.064Z,7.30
2023-01-11T04:57:03.124Z,7.90
2023-01-11T05:01:59.855Z,7.90
2023-01-11T05:04:28.046Z,7.70
2023-01-11T05:14:21.795Z,7.20
2023-01-11T05:16:50.113Z,7.90
2023-01-11T05:19:18.676Z,7.30
2023-01-11T05:21:46.817Z,8.10
2023-01-11T05:24:17.861Z,8.10
2023-01-11T05:26:48.484Z,7.60
2023-01-11T05:31:47.189Z,8.00
2023-01-11T05:34:16.992Z,7.60
2023-01-11T05:39:15.401Z,7.60
2023-01-11T05:41:43.603Z,7.30
2023-01-11T05:44:32.221Z,7.50
2023-01-11T05:47:00.937Z,7.60
2023-01-11T05:51:57.494Z,7.20
2023-01-11T05:54:25.658Z,7.60
2023-01-11T05:59:22.217Z,7.40
2023-01-11T06:04:19.282Z,8.20
2023-01-11T06:06:47.411Z,8.10
2023-01-11T06:09:15.593Z,7.50
2023-01-11T06:14:12.129Z,7.30
2023-01-11T06:16:40.445Z,8.20
2023-01-11T06:26:34.223Z,8.20
2023-01-11T06:29:02.287Z,8.20
2023-01-11T06:33:58.813Z,7.40
2023-01-11T06:43:56.787Z,7.70
2023-01-11T06:46:26.955Z,7.70
2023-01-11T06:53:53.248Z,8.40
2023-01-11T07:01:20.492Z,8.00
2023-01-11T07:08:45.870Z,7.80
2023-01-11T07:13:42.472Z,8.40
2023-01-11T07:18:39.197Z,7.60
2023-01-11T07:21:07.404Z,8.10
2023-01-11T07:31:01.062Z,7.80
2023-01-11T07:33:29.403Z,8.30
2023-01-11T07:35:58.379Z,8.70
2023-01-11T07:40:56.916Z,8.30
2023-01-11T07:45:54.371Z,8.40
2023-01-11T07:48:27.072Z,8.50
2023-01-11T07:50:56.031Z,8.90
2023-01-11T07:53:26.692Z,8.70
2023-01-11T07:55:57.201Z,8.70
2023-01-11T08:00:53.884Z,8.20
2023-01-11T08:03:22.239Z,8.20
2023-01-11T08:05:54.307Z,8.60
2023-01-11T08:08:23.209Z,8.70
2023-01-11T08:23:55.418Z,8.80
2023-01-11T08:26:28.356Z,8.80
2023-01-11T08:38:56.826Z,9.10
2023-01-11T08:41:26.138Z,8.90
2023-01-11T08:51:22.851Z,9.40
2023-01-11T08:53:53.533Z,9.40
2023-01-11T09:01:18.414Z,9.30
2023-01-11T09:06:14.966Z,9.50
2023-01-11T09:18:51.401Z,10.20
2023-01-11T09:36:17.967Z,9.70
2023-01-11T09:42:06.225Z,9.90
2023-01-11T09:44:38.278Z,9.90
2023-01-11T09:47:45.132Z,10.00
2023-01-11T09:50:31.077Z,9.60
2023-01-11T09:53:08.319Z,9.80
2023-01-11T09:55:44.783Z,10.30
2023-01-11T09:59:02.591Z,10.20
2023-01-11T10:01:54.912Z,10.60
2023-01-11T10:04:52.130Z,10.30
2023-01-11T10:07:53.764Z,10.30
2023-01-11T10:18:23.430Z,10.40
2023-01-11T10:20:16.191Z,10.30
2023-01-11T10:22:48.349Z,10.30
2023-01-11T10:25:22.033Z,10.80
2023-01-11T10:27:57.072Z,10.30
2023-01-11T10:30:57.544Z,10.20
2023-01-11T10:33:57.455Z,10.00
2023-01-11T10:40:19.473Z,10.50
2023-01-11T10:43:03.865Z,10.50
2023-01-11T10:45:56.755Z,10.30
2023-01-11T10:48:33.646Z,10.20
2023-01-11T10:51:16.290Z,11.10
2023-01-11T10:57:18.118Z,10.60
2023-01-11T11:00:36.621Z,10.70
2023-01-11T11:03:20.118Z,11.00
2023-01-11T11:06:19.322Z,10.40
2023-01-11T11:11:53.296Z,10.20
2023-01-11T11:14:39.082Z,10.50
2023-01-11T11:17:36.227Z,10.40
2023-01-11T11:20:30.338Z,10.40
2023-01-11T11:25:35.609Z,9.90
2023-01-11T11:28:25.737Z,10.10
2023-01-11T11:30:58.151Z,10.00
2023-01-11T11:33:39.504Z,10.00
2023-01-11T11:36:13.602Z,9.70
2023-01-11T11:39:02.756Z,10.00
2023-01-11T11:44:21.708Z,9.80
2023-01-11T11:47:24.913Z,9.80
2023-01-11T11:50:43.179Z,9.80
2023-01-11T11:53:47.421Z,9.80
2023-01-11T11:56:32.598Z,9.70
2023-01-11T11:59:09.381Z,10.10
2023-01-11T12:01:41.025Z,10.00
2023-01-11T12:04:20.470Z,9.80
2023-01-11T12:07:08.885Z,9.30
2023-01-11T12:09:38.123Z,12.60
2023-01-11T12:14:37.742Z,9.80
2023-01-11T12:17:26.867Z,9.40
2023-01-11T12:19:54.997Z,9.70
2023-01-11T12:22:26.100Z,9.70
2023-01-11T12:25:15.991Z,9.30
2023-01-11T12:28:15.230Z,9.70
2023-01-11T12:31:19.110Z,9.70
2023-01-11T12:34:26.085Z,9.30
2023-01-11T12:39:53.449Z,9.70
2023-01-11T12:42:40.065Z,9.70
2023-01-11T12:45:32.151Z,10.10
2023-01-11T12:51:09.665Z,9.70
2023-01-11T12:56:36.883Z,9.60
2023-01-11T12:59:59.330Z,9.70
2023-01-11T13:02:56.079Z,9.00
2023-01-11T13:06:01.635Z,10.20
2023-01-11T13:09:00.455Z,9.50
2023-01-11T13:11:45.807Z,9.10
2023-01-11T13:14:49.935Z,9.70
2023-01-11T13:17:46.843Z,9.60
2023-01-11T13:20:29.974Z,9.60
2023-01-11T13:23:18.340Z,9.80
2023-01-11T13:25:49.644Z,9.80
2023-01-11T13:28:30.678Z,9.80
2023-01-11T13:31:01.167Z,10.20
2023-01-11T13:33:32.101Z,9.80
2023-01-11T13:36:23.163Z,9.80
2023-01-11T13:39:02.810Z,9.80
2023-01-11T13:42:05.422Z,9.80
2023-01-11T13:44:42.469Z,9.80
2023-01-11T13:47:35.916Z,9.80
2023-01-11T13:50:22.791Z,9.50
2023-01-11T13:53:10.076Z,9.70
2023-01-11T13:55:40.946Z,10.20
2023-01-11T14:00:50.833Z,9.40
2023-01-11T14:03:32.505Z,9.80
2023-01-11T14:06:19.100Z,9.70
2023-01-11T14:09:24.980Z,9.70
2023-01-11T14:12:04.129Z,9.60
2023-01-11T14:15:18.950Z,7.70
2023-01-11T14:17:49.765Z,9.40
2023-01-11T14:20:48.380Z,9.70
2023-01-11T14:23:33.933Z,9.50
2023-01-11T14:26:26.731Z,9.70
2023-01-11T14:29:28.643Z,9.70
2023-01-11T14:32:07.639Z,9.60
2023-01-11T14:35:24.230Z,9.30
2023-01-11T14:38:10.112Z,9.60
2023-01-11T14:40:57.209Z,9.90
2023-01-11T14:43:43.499Z,9.60
2023-01-11T14:46:46.846Z,9.40
2023-01-11T14:52:38.559Z,9.90
2023-01-11T14:55:17.687Z,9.80
2023-01-11T14:58:11.444Z,10.00
2023-01-11T15:00:45.301Z,9.30
2023-01-11T15:03:18.217Z,9.60
2023-01-11T15:06:13.602Z,9.60
2023-01-11T15:08:55.083Z,9.60
2023-01-11T15:11:38.064Z,9.10
2023-01-11T15:14:23.881Z,9.60
2023-01-11T15:17:13.273Z,9.70
2023-01-11T15:19:43.590Z,9.60
2023-01-11T15:22:31.307Z,9.60
2023-01-11T15:25:23.598Z,9.30
2023-01-11T15:27:53.218Z,10.00
2023-01-11T15:30:30.304Z,9.30
2023-01-11T15:33:20.324Z,9.70
2023-01-11T15:35:57.216Z,9.70
2023-01-11T15:38:52.958Z,9.40
2023-01-11T15:41:59.745Z,9.80
2023-01-11T15:45:10.228Z,9.20
2023-01-11T15:47:56.392Z,9.90
2023-01-11T15:50:50.537Z,9.90
2023-01-11T15:53:52.435Z,9.70
2023-01-11T15:57:05.621Z,9.70
2023-01-11T16:00:21.359Z,9.60
2023-01-11T16:03:14.056Z,9.70
2023-01-11T16:05:54.851Z,9.60
2023-01-11T16:08:32.196Z,9.70
2023-01-11T16:11:41.088Z,9.20
2023-01-11T16:14:47.631Z,10.30
2023-01-11T16:17:22.518Z,9.70
2023-01-11T16:19:56.609Z,9.50
2023-01-11T16:22:27.298Z,9.10
2023-01-11T16:25:02.315Z,9.60
2023-01-11T16:27:35.481Z,9.60
2023-01-11T16:30:04.180Z,9.50
2023-01-11T16:32:33.741Z,9.60
2023-01-11T16:35:03.701Z,10.70
2023-01-11T16:37:39.388Z,9.60
2023-01-11T16:40:25.607Z,9.80
2023-01-11T16:42:59.998Z,9.60
2023-01-11T16:45:45.349Z,9.70
2023-01-11T16:48:25.006Z,9.20
2023-01-11T16:51:19.235Z,9.60
2023-01-11T16:53:58.070Z,10.00
2023-01-11T16:59:16.114Z,9.50
2023-01-11T17:01:58.686Z,10.10
2023-01-11T17:04:38.288Z,9.30
2023-01-11T17:07:25.670Z,9.60
2023-01-11T17:09:54.121Z,9.60
2023-01-11T17:12:27.766Z,9.50
2023-01-11T17:15:43.841Z,9.60
2023-01-11T17:18:12.519Z,9.60
2023-01-11T17:28:20.801Z,9.60
2023-01-11T17:30:51.829Z,9.50
2023-01-11T17:33:35.020Z,10.00
2023-01-11T17:36:04.180Z,9.50
2023-01-11T17:38:32.907Z,9.50
2023-01-11T17:41:02.503Z,9.00
2023-01-11T17:43:48.891Z,9.90
2023-01-11T17:46:25.613Z,9.40
2023-01-11T17:49:02.254Z,9.40
2023-01-11T17:51:33.648Z,9.40
2023-01-11T17:54:02.133Z,9.10
2023-01-11T17:56:42.725Z,9.00
2023-01-11T17:59:21.429Z,8.90
2023-01-11T18:01:52.689Z,9.30
2023-01-11T18:04:23.585Z,9.30
2023-01-11T18:06:58.150Z,9.20
2023-01-11T18:09:32.922Z,9.20
2023-01-11T18:12:17.703Z,9.70
2023-01-11T18:15:01.713Z,9.20
2023-01-11T18:17:42.206Z,9.20
2023-01-11T18:20:32.139Z,9.20
2023-01-11T18:23:20.856Z,9.10
2023-01-11T18:28:23.133Z,8.80
2023-01-11T18:30:53.904Z,9.00
2023-01-11T18:33:25.930Z,8.70
2023-01-11T18:36:05.384Z,9.00
2023-01-11T18:38:36.465Z,8.80
2023-01-11T18:41:24.271Z,9.00
2023-01-11T18:43:53.834Z,8.80
2023-01-11T18:46:22.312Z,8.80
2023-01-11T18:51:51.423Z,8.60
2023-01-11T18:57:11.779Z,12.40
2023-01-11T18:59:40.552Z,8.80
2023-01-11T19:04:49.606Z,8.60
2023-01-11T19:07:17.957Z,8.70
2023-01-11T19:12:15.954Z,8.80
2023-01-11T19:17:14.013Z,8.80
2023-01-11T19:22:12.496Z,8.80
2023-01-11T19:32:07.273Z,8.60
2023-01-11T19:44:32.317Z,8.70
2023-01-11T19:50:03.390Z,8.70
2023-01-11T20:00:03.946Z,8.80
2023-01-11T20:09:57.638Z,8.40
2023-01-11T20:22:25.763Z,8.70
2023-01-11T20:35:10.636Z,8.60
2023-01-11T20:40:08.608Z,8.90
2023-01-11T20:47:34.030Z,8.80
2023-01-11T20:50:03.171Z,8.50
2023-01-11T20:57:29.373Z,8.30
2023-01-11T21:02:26.318Z,8.00
2023-01-11T21:04:54.524Z,8.80
2023-01-11T21:34:40.171Z,8.30
2023-01-11T21:39:36.685Z,8.50
2023-01-11T21:44:35.121Z,8.20
2023-01-11T21:47:06.548Z,8.20
2023-01-11T22:12:04.211Z,8.10
2023-01-11T22:17:02.531Z,7.90
2023-01-11T22:22:00.911Z,7.70
2023-01-11T22:24:28.887Z,8.20
2023-01-11T22:32:01.424Z,8.20
2023-01-11T22:34:29.751Z,8.10
2023-01-11T22:44:25.262Z,7.70
2023-01-11T23:01:44.798Z,7.70
2023-01-11T23:04:15.021Z,7.90
2023-01-11T23:06:44.300Z,7.70
2023-01-11T23:09:16.689Z,7.70
2023-01-11T23:14:33.751Z,7.70
2023-01-11T23:17:06.540Z,8.20
2023-01-11T23:19:36.865Z,7.70
2023-01-11T23:22:05.962Z,7.80
2023-01-11T23:29:31.531Z,7.70
2023-01-11T23:34:28.779Z,7.50
2023-01-11T23:42:11.236Z,7.20
2023-01-11T23:49:54.700Z,7.50
2023-01-11T23:52:27.313Z,7.60
2023-01-11T23:57:26.561Z,7.60
2023-01-11T23:59:54.637Z,7.30
